Aleksandr Suvorov — UCAD — position and weather

sailwx.info

Track history (hours):
 
Tides and Currents Weather Stations Pressure Air Temp Water Temp Dewpoint Dewpoint Depression Visibility Wind Speed Wind Dir Waves Ship Positions

Aleksandr Suvorov

Last reported at 2017-Nov-22 23:06 UTC. Time now 2017-Nov-23 04:01 UTC.
Position N 35°56' E 014°51'.

Length 181 m; draft 7.2 m.

Type: Cargo ship. MMSI: 273138951.

Date/timePositionNaut miles runAvg speedWind from/ knotsBaromVisibWave heightAir tempDewpointWater temp
2017-Nov-22 23:06N 35°56' E 014°51'0 0.0
2017-Nov-22 22:57N 35°56' E 014°51'  
2017-Nov-17 02:55N 36°00' W 005°09'410.6
2017-Nov-17 02:30N 35°59' W 005°15'510.9
2017-Nov-17 02:00N 35°58' W 005°21'510.6
2017-Nov-17 01:30N 35°57' W 005°28'  
2017-Nov-14 03:50N 29°01' W 014°23'5 7.9
2017-Nov-14 03:12N 28°58' W 014°27'3 8.0
2017-Nov-14 02:52N 28°56' W 014°29'3 8.2
2017-Nov-14 02:30N 28°54' W 014°32'5 8.0
2017-Nov-14 01:53N 28°50' W 014°36'8 8.1
2017-Nov-14 00:56N 28°44' W 014°41'4 8.0
2017-Nov-14 00:28N 28°42' W 014°44'4 7.9
2017-Nov-14 00:00N 28°39' W 014°47'4 8.0
2017-Nov-13 23:30N 28°36' W 014°50'4 8.0
2017-Nov-13 23:00N 28°33' W 014°53'4 8.1
2017-Nov-13 22:30N 28°30' W 014°57'4 8.5
2017-Nov-13 22:00N 28°27' W 014°60'30 1.5
2017-Nov-13 01:56N 28°06' W 015°24'0 0.0
2017-Nov-13 01:29N 28°06' W 015°24'0 0.0
2017-Nov-13 01:00N 28°06' W 015°24'0 0.0
2017-Nov-13 00:26N 28°06' W 015°24'0 0.0
2017-Nov-12 23:58N 28°06' W 015°24'0 0.0
2017-Nov-12 23:26N 28°06' W 015°24'  
Track history (hours):
 
Tides and Currents Weather Stations Pressure Air Temp Water Temp Dewpoint Dewpoint Depression Visibility Wind Speed Wind Dir Waves Ship Positions

Aleksandr Suvorov

Last reported at 2017-Nov-22 23:06 UTC. Time now 2017-Nov-23 04:01 UTC.
Position N 35°56' E 014°51'.

Length 181 m; draft 7.2 m.

Type: Cargo ship. MMSI: 273138951.

Date/timePositionNaut miles runAvg speedWind from/ knotsBaromVisibWave heightAir tempDewpointWater temp
2017-Nov-22 23:06N 35°56' E 014°51'0 0.0
2017-Nov-22 22:57N 35°56' E 014°51'  
2017-Nov-17 02:55N 36°00' W 005°09'410.6
2017-Nov-17 02:30N 35°59' W 005°15'510.9
2017-Nov-17 02:00N 35°58' W 005°21'510.6
2017-Nov-17 01:30N 35°57' W 005°28'  
2017-Nov-14 03:50N 29°01' W 014°23'5 7.9
2017-Nov-14 03:12N 28°58' W 014°27'3 8.0
2017-Nov-14 02:52N 28°56' W 014°29'3 8.2
2017-Nov-14 02:30N 28°54' W 014°32'5 8.0
2017-Nov-14 01:53N 28°50' W 014°36'8 8.1
2017-Nov-14 00:56N 28°44' W 014°41'4 8.0
2017-Nov-14 00:28N 28°42' W 014°44'4 7.9
2017-Nov-14 00:00N 28°39' W 014°47'4 8.0
2017-Nov-13 23:30N 28°36' W 014°50'4 8.0
2017-Nov-13 23:00N 28°33' W 014°53'4 8.1
2017-Nov-13 22:30N 28°30' W 014°57'4 8.5
2017-Nov-13 22:00N 28°27' W 014°60'30 1.5
2017-Nov-13 01:56N 28°06' W 015°24'0 0.0
2017-Nov-13 01:29N 28°06' W 015°24'0 0.0
2017-Nov-13 01:00N 28°06' W 015°24'0 0.0
2017-Nov-13 00:26N 28°06' W 015°24'0 0.0
2017-Nov-12 23:58N 28°06' W 015°24'0 0.0
2017-Nov-12 23:26N 28°06' W 015°24'  

Dump ship's entire track history